createdAt,value
2023-02-25T00:00:38.671Z,15.55
2023-02-25T00:03:05.653Z,15.57
2023-02-25T00:05:33.676Z,14.05
2023-02-25T00:08:00.796Z,13.05
2023-02-25T00:10:27.796Z,15.57
2023-02-25T00:12:54.844Z,13.30
2023-02-25T00:15:23.105Z,15.00
2023-02-25T00:17:50.004Z,15.43
2023-02-25T00:20:17.458Z,16.25
2023-02-25T00:22:44.312Z,16.73
2023-02-25T00:25:11.105Z,16.50
2023-02-25T00:27:37.991Z,18.73
2023-02-25T00:30:05.756Z,17.65
2023-02-25T00:32:32.672Z,12.25
2023-02-25T00:34:59.890Z,17.27
2023-02-25T00:37:26.669Z,15.90
2023-02-25T00:39:53.517Z,14.35
2023-02-25T00:42:20.706Z,13.43
2023-02-25T00:44:49.860Z,14.23
2023-02-25T00:47:18.093Z,11.40
2023-02-25T00:49:47.740Z,11.88
2023-02-25T00:52:15.733Z,13.43
2023-02-25T00:54:42.851Z,12.77
2023-02-25T00:57:09.968Z,12.35
2023-02-25T00:59:37.133Z,12.00
2023-02-25T01:02:04.536Z,12.07
2023-02-25T01:04:31.548Z,11.00
2023-02-25T01:09:26.547Z,10.98
2023-02-25T01:11:53.377Z,12.55
2023-02-25T01:14:23.587Z,11.05
2023-02-25T01:16:51.522Z,10.75
2023-02-25T01:21:51.739Z,12.82
2023-02-25T01:24:25.230Z,16.33
2023-02-25T01:26:57.039Z,12.10
2023-02-25T01:29:27.115Z,16.50
2023-02-25T01:31:56.932Z,14.00
2023-02-25T01:34:24.618Z,15.00
2023-02-25T01:36:52.043Z,13.00
2023-02-25T01:39:20.179Z,16.13
2023-02-25T01:41:48.837Z,16.27
2023-02-25T01:44:25.395Z,17.52
2023-02-25T01:46:54.049Z,19.17
2023-02-25T01:49:43.216Z,18.35
2023-02-25T01:52:19.609Z,16.38
2023-02-25T01:54:48.007Z,16.42
2023-02-25T01:57:18.312Z,19.83
2023-02-25T01:59:47.592Z,18.20
2023-02-25T02:02:17.570Z,17.08
2023-02-25T02:04:45.200Z,18.42
2023-02-25T02:07:13.164Z,18.95
2023-02-25T02:09:40.489Z,21.50
2023-02-25T02:12:07.493Z,19.88
2023-02-25T02:14:39.924Z,22.08
2023-02-25T02:17:19.443Z,24.75
2023-02-25T02:20:11.559Z,22.83
2023-02-25T02:23:22.194Z,19.77
2023-02-25T02:26:19.530Z,22.52
2023-02-25T02:29:12.715Z,21.92
2023-02-25T02:32:10.570Z,23.65
2023-02-25T02:35:17.292Z,20.25
2023-02-25T02:37:59.543Z,24.52
2023-02-25T02:40:58.005Z,22.55
2023-02-25T02:43:40.611Z,22.60
2023-02-25T02:46:28.599Z,22.58
2023-02-25T02:49:20.789Z,22.25
2023-02-25T02:52:02.103Z,22.20
2023-02-25T02:54:32.909Z,25.25
2023-02-25T02:57:01.103Z,22.35
2023-02-25T02:59:33.580Z,19.58
2023-02-25T03:02:06.740Z,18.48
2023-02-25T03:04:38.014Z,25.92
2023-02-25T03:07:08.894Z,19.80
2023-02-25T03:09:46.477Z,20.38
2023-02-25T03:12:13.307Z,19.05
2023-02-25T03:14:40.552Z,21.75
2023-02-25T03:17:18.873Z,21.25
2023-02-25T03:19:52.945Z,20.20
2023-02-25T03:22:23.606Z,19.73
2023-02-25T03:24:59.142Z,19.30
2023-02-25T03:27:30.253Z,22.45
2023-02-25T03:30:29.680Z,21.48
2023-02-25T03:33:05.670Z,25.13
2023-02-25T03:35:34.631Z,23.30
2023-02-25T03:38:10.191Z,25.27
2023-02-25T03:40:39.002Z,26.60
2023-02-25T03:43:11.492Z,24.13
2023-02-25T03:45:39.986Z,28.42
2023-02-25T03:48:08.021Z,25.98
2023-02-25T03:50:39.152Z,31.20
2023-02-25T03:53:08.026Z,29.20
2023-02-25T03:55:54.192Z,23.67
2023-02-25T03:58:21.123Z,26.35
2023-02-25T04:00:53.158Z,25.02
2023-02-25T04:03:20.117Z,29.47
2023-02-25T04:05:48.738Z,31.08
2023-02-25T04:08:16.283Z,24.83
2023-02-25T04:10:46.441Z,25.23
2023-02-25T04:13:15.811Z,27.70
2023-02-25T04:15:43.743Z,29.10
2023-02-25T04:18:10.810Z,32.55
2023-02-25T04:20:37.813Z,28.17
2023-02-25T04:23:04.973Z,25.65
2023-02-25T04:25:32.997Z,30.13
2023-02-25T04:28:00.547Z,29.55
2023-02-25T04:30:27.509Z,27.23
2023-02-25T04:32:54.443Z,28.85
2023-02-25T04:35:21.313Z,27.85
2023-02-25T04:37:48.234Z,31.55
2023-02-25T04:40:17.806Z,27.27
2023-02-25T04:42:45.197Z,31.55
2023-02-25T04:45:12.795Z,31.15
2023-02-25T04:47:40.074Z,29.42
2023-02-25T04:50:08.346Z,28.05
2023-02-25T04:52:35.787Z,25.08
2023-02-25T04:55:02.646Z,27.63
2023-02-25T04:57:29.577Z,31.00
2023-02-25T04:59:56.537Z,28.05
2023-02-25T05:02:23.431Z,31.33
2023-02-25T05:04:50.267Z,29.05
2023-02-25T05:07:17.171Z,34.15
2023-02-25T05:09:44.300Z,36.45
2023-02-25T05:12:11.136Z,31.58
2023-02-25T05:14:38.100Z,32.65
2023-02-25T05:17:04.889Z,34.53
2023-02-25T05:19:31.842Z,28.67
2023-02-25T05:21:58.646Z,30.27
2023-02-25T05:24:25.481Z,25.65
2023-02-25T05:26:52.522Z,27.02
2023-02-25T05:29:19.450Z,35.13
2023-02-25T05:31:47.159Z,23.55
2023-02-25T05:34:14.051Z,26.23
2023-02-25T05:36:41.191Z,42.30
2023-02-25T05:39:08.219Z,38.33
2023-02-25T05:41:34.992Z,46.63
2023-02-25T05:44:01.849Z,46.03
2023-02-25T05:46:28.880Z,41.50
2023-02-25T05:48:55.725Z,32.60
2023-02-25T05:51:23.830Z,41.47
2023-02-25T05:53:51.531Z,52.30
2023-02-25T05:56:22.336Z,37.45
2023-02-25T05:58:49.460Z,37.58
2023-02-25T06:01:19.683Z,34.58
2023-02-25T06:03:47.954Z,28.15
2023-02-25T06:06:16.606Z,23.08
2023-02-25T06:08:44.901Z,22.50
2023-02-25T06:11:16.513Z,29.45
2023-02-25T06:13:43.355Z,57.22
2023-02-25T06:16:10.221Z,62.92
2023-02-25T06:18:37.199Z,76.70
2023-02-25T06:21:09.220Z,78.90
2023-02-25T06:23:37.360Z,65.65
2023-02-25T06:26:05.771Z,45.83
2023-02-25T06:28:32.947Z,42.72
2023-02-25T06:31:00.448Z,32.38
2023-02-25T06:33:30.835Z,29.48
2023-02-25T06:35:58.921Z,27.23
2023-02-25T06:38:25.764Z,23.10
2023-02-25T06:40:52.818Z,23.92
2023-02-25T06:43:19.826Z,24.75
2023-02-25T06:45:46.853Z,34.10
2023-02-25T06:48:13.705Z,57.25
2023-02-25T06:50:41.481Z,65.43
2023-02-25T06:53:09.131Z,65.75
2023-02-25T06:55:39.030Z,53.38
2023-02-25T06:58:06.119Z,49.03
2023-02-25T07:00:33.114Z,52.70
2023-02-25T07:03:03.045Z,57.50
2023-02-25T07:05:29.935Z,27.73
2023-02-25T07:07:57.024Z,28.77
2023-02-25T07:10:23.874Z,35.97
2023-02-25T07:12:52.850Z,36.35
2023-02-25T07:15:21.277Z,34.85
2023-02-25T07:17:48.532Z,30.25
2023-02-25T07:20:15.902Z,41.70
2023-02-25T07:22:42.906Z,44.85
2023-02-25T07:25:11.909Z,43.72
2023-02-25T07:27:44.799Z,51.65
2023-02-25T07:30:13.287Z,43.88
2023-02-25T07:32:41.427Z,52.30
2023-02-25T07:35:09.336Z,49.22
2023-02-25T07:37:36.249Z,30.90
2023-02-25T07:40:04.117Z,34.13
2023-02-25T07:42:31.014Z,28.00
2023-02-25T07:45:02.030Z,25.52
2023-02-25T07:47:29.194Z,17.35
2023-02-25T07:49:56.096Z,14.45
2023-02-25T07:52:23.040Z,13.07
2023-02-25T07:54:50.111Z,12.23
2023-02-25T07:57:16.930Z,12.30
2023-02-25T07:59:43.843Z,16.45
2023-02-25T08:02:15.673Z,14.95
2023-02-25T08:04:42.575Z,17.35
2023-02-25T08:07:09.456Z,15.00
2023-02-25T08:09:36.306Z,12.30
2023-02-25T08:12:03.194Z,14.13
2023-02-25T08:14:30.093Z,13.93
2023-02-25T08:16:57.332Z,13.38
2023-02-25T08:19:24.582Z,14.10
2023-02-25T08:21:51.425Z,14.65
2023-02-25T08:24:20.696Z,15.35
2023-02-25T08:26:48.083Z,17.67
2023-02-25T08:29:15.401Z,14.40
2023-02-25T08:31:42.508Z,13.60
2023-02-25T08:34:09.754Z,14.75
2023-02-25T08:36:37.245Z,11.15
2023-02-25T08:39:04.402Z,10.38
2023-02-25T08:41:31.312Z,13.32
2023-02-25T08:44:00.648Z,12.43
2023-02-25T08:46:30.183Z,11.73
2023-02-25T08:48:58.652Z,14.40
2023-02-25T08:51:34.413Z,11.02
2023-02-25T08:54:04.112Z,9.25
2023-02-25T08:56:31.159Z,9.63
2023-02-25T08:58:58.078Z,10.88
2023-02-25T09:01:25.739Z,9.95
2023-02-25T09:03:53.046Z,8.63
2023-02-25T09:06:22.428Z,9.13
2023-02-25T09:08:49.617Z,9.73
2023-02-25T09:11:16.956Z,7.45
2023-02-25T09:13:43.986Z,8.50
2023-02-25T09:16:11.554Z,4.97
2023-02-25T09:18:38.567Z,7.43
2023-02-25T09:21:05.715Z,7.47
2023-02-25T09:23:33.058Z,6.63
2023-02-25T09:26:04.084Z,7.13
2023-02-25T09:28:31.281Z,4.82
2023-02-25T09:30:58.443Z,3.83
2023-02-25T09:33:26.407Z,5.70
2023-02-25T09:35:53.256Z,9.05
2023-02-25T09:38:20.816Z,9.82
2023-02-25T09:40:48.917Z,7.03
2023-02-25T09:43:26.204Z,5.60
2023-02-25T09:45:54.640Z,6.00
2023-02-25T09:48:27.149Z,5.30
2023-02-25T09:50:59.185Z,5.90
2023-02-25T09:53:35.801Z,4.82
2023-02-25T09:56:05.878Z,5.43
2023-02-25T09:58:37.974Z,3.75
2023-02-25T10:01:27.510Z,3.25
2023-02-25T10:04:13.896Z,2.08
2023-02-25T10:06:44.356Z,2.53
2023-02-25T10:09:31.454Z,1.10
2023-02-25T10:12:20.923Z,0.80
2023-02-25T10:15:18.869Z,2.42
2023-02-25T10:18:11.650Z,1.77
2023-02-25T10:21:09.092Z,3.10
2023-02-25T10:23:51.078Z,2.67
2023-02-25T10:28:55.297Z,5.05
2023-02-25T10:31:24.144Z,3.90
2023-02-25T10:33:58.569Z,2.65
2023-02-25T10:36:31.170Z,1.80
2023-02-25T10:38:58.226Z,1.77
2023-02-25T10:41:26.936Z,2.55
2023-02-25T10:43:55.203Z,3.90
2023-02-25T10:46:31.678Z,1.42
2023-02-25T10:49:00.726Z,6.45
2023-02-25T10:51:29.688Z,6.75
2023-02-25T10:54:05.441Z,3.67
2023-02-25T10:56:42.725Z,3.75
2023-02-25T10:59:38.497Z,4.05
2023-02-25T11:02:28.647Z,2.83
2023-02-25T11:04:55.827Z,6.22
2023-02-25T11:07:25.929Z,10.15
2023-02-25T11:10:17.056Z,6.40
2023-02-25T11:12:47.797Z,4.03
2023-02-25T11:15:45.375Z,3.83
2023-02-25T11:18:22.434Z,3.83
2023-02-25T11:20:55.555Z,4.78
2023-02-25T11:23:28.457Z,4.25
2023-02-25T11:25:55.676Z,3.90
2023-02-25T11:28:47.094Z,3.85
2023-02-25T11:31:23.777Z,1.73
2023-02-25T11:34:03.829Z,3.80
2023-02-25T11:36:34.030Z,3.17
2023-02-25T11:39:15.500Z,3.47
2023-02-25T11:41:44.833Z,2.70
2023-02-25T11:44:24.425Z,2.85
2023-02-25T11:47:25.589Z,2.25
2023-02-25T11:50:19.089Z,2.97
2023-02-25T11:53:26.235Z,2.78
2023-02-25T11:56:26.435Z,1.88
2023-02-25T11:59:16.516Z,3.83
2023-02-25T12:02:23.957Z,1.25
2023-02-25T12:05:30.640Z,2.45
2023-02-25T12:08:23.028Z,1.58
2023-02-25T12:11:09.817Z,1.40
2023-02-25T12:14:04.569Z,1.77
2023-02-25T12:17:11.205Z,1.90
2023-02-25T12:20:04.812Z,2.80
2023-02-25T12:23:07.955Z,2.78
2023-02-25T12:25:51.282Z,3.28
2023-02-25T12:28:49.835Z,3.97
2023-02-25T12:31:56.768Z,3.50
2023-02-25T12:34:47.249Z,5.28
2023-02-25T12:37:39.718Z,4.35
2023-02-25T12:40:32.810Z,3.53
2023-02-25T12:43:26.014Z,3.88
2023-02-25T12:46:25.574Z,4.50
2023-02-25T12:49:22.686Z,1.92
2023-02-25T12:52:03.800Z,6.97
2023-02-25T12:55:10.512Z,7.07
2023-02-25T12:57:49.073Z,3.60
2023-02-25T13:00:48.735Z,5.70
2023-02-25T13:03:55.655Z,4.50
2023-02-25T13:06:49.168Z,4.93
2023-02-25T13:09:30.306Z,4.57
2023-02-25T13:12:12.027Z,4.13
2023-02-25T13:15:09.712Z,3.15
2023-02-25T13:18:11.351Z,5.35
2023-02-25T13:21:18.080Z,3.00
2023-02-25T13:24:24.712Z,2.95
2023-02-25T13:27:08.338Z,2.88
2023-02-25T13:30:15.247Z,5.05
2023-02-25T13:33:11.278Z,2.33
2023-02-25T13:36:12.361Z,2.80
2023-02-25T13:39:04.031Z,1.60
2023-02-25T13:42:05.445Z,2.15
2023-02-25T13:45:12.102Z,4.20
2023-02-25T13:47:57.356Z,3.92
2023-02-25T13:51:04.417Z,4.03
2023-02-25T13:54:12.054Z,3.30
2023-02-25T13:57:07.168Z,3.20
2023-02-25T13:59:59.218Z,2.30
2023-02-25T14:05:29.519Z,3.13
2023-02-25T14:08:30.266Z,2.17
2023-02-25T14:11:26.935Z,2.53
2023-02-25T14:14:13.559Z,2.70
2023-02-25T14:17:20.262Z,3.10
2023-02-25T14:20:16.582Z,3.10
2023-02-25T14:22:47.697Z,2.40
2023-02-25T14:25:38.419Z,3.00
2023-02-25T14:28:14.782Z,4.03
2023-02-25T14:30:56.314Z,3.58
2023-02-25T14:33:52.503Z,2.17
2023-02-25T14:36:39.266Z,3.13
2023-02-25T14:39:35.260Z,2.75
2023-02-25T14:42:41.985Z,3.05
2023-02-25T14:45:22.157Z,3.85
2023-02-25T14:47:57.977Z,3.33
2023-02-25T14:51:04.825Z,2.92
2023-02-25T14:54:11.577Z,3.67
2023-02-25T14:57:18.189Z,3.10
2023-02-25T15:00:11.533Z,2.47
2023-02-25T15:03:12.227Z,1.75
2023-02-25T15:06:19.621Z,3.17
2023-02-25T15:09:18.709Z,1.98
2023-02-25T15:12:25.391Z,2.15
2023-02-25T15:15:32.146Z,1.20
2023-02-25T15:18:38.746Z,1.98
2023-02-25T15:21:33.019Z,2.10
2023-02-25T15:24:00.248Z,2.75
2023-02-25T15:26:48.598Z,2.45
2023-02-25T15:29:55.630Z,1.70
2023-02-25T15:32:30.612Z,2.40
2023-02-25T15:35:03.507Z,1.67
2023-02-25T15:37:36.252Z,7.10
2023-02-25T15:40:43.152Z,2.00
2023-02-25T15:43:40.258Z,2.85
2023-02-25T15:46:41.611Z,3.03
2023-02-25T15:49:23.081Z,4.47
2023-02-25T15:51:53.286Z,4.88
2023-02-25T15:54:48.411Z,2.85
2023-02-25T15:57:35.623Z,6.68
2023-02-25T16:00:02.610Z,9.18
2023-02-25T16:02:33.760Z,6.28
2023-02-25T16:05:23.784Z,5.57
2023-02-25T16:08:06.064Z,6.28
2023-02-25T16:10:45.525Z,4.50
2023-02-25T16:13:16.027Z,3.97
2023-02-25T16:15:48.463Z,9.13
2023-02-25T16:18:34.909Z,5.32
2023-02-25T16:21:06.161Z,5.45
2023-02-25T16:23:39.699Z,6.82
2023-02-25T16:26:31.178Z,4.70
2023-02-25T16:29:08.362Z,6.90
2023-02-25T16:31:52.619Z,8.98
2023-02-25T16:34:31.740Z,14.43
2023-02-25T16:37:29.596Z,12.73
2023-02-25T16:39:57.480Z,8.77
2023-02-25T16:42:24.462Z,8.32
2023-02-25T16:45:00.724Z,12.02
2023-02-25T16:47:30.191Z,9.25
2023-02-25T16:49:58.561Z,12.55
2023-02-25T16:52:30.483Z,15.23
2023-02-25T16:55:03.174Z,13.23
2023-02-25T16:57:30.186Z,13.25
2023-02-25T17:00:18.987Z,10.50
2023-02-25T17:02:48.906Z,9.02
2023-02-25T17:05:34.272Z,7.75
2023-02-25T17:08:05.109Z,5.22
2023-02-25T17:10:34.963Z,3.97
2023-02-25T17:13:03.204Z,4.65
2023-02-25T17:15:33.548Z,5.88
2023-02-25T17:18:07.246Z,6.32
2023-02-25T17:20:34.991Z,8.63
2023-02-25T17:23:06.594Z,9.63
2023-02-25T17:25:39.428Z,9.05
2023-02-25T17:28:08.365Z,13.25
2023-02-25T17:30:39.074Z,12.70
2023-02-25T17:33:07.059Z,17.90
2023-02-25T17:35:35.146Z,14.30
2023-02-25T17:38:02.522Z,13.50
2023-02-25T17:40:31.119Z,20.40
2023-02-25T17:43:23.611Z,20.73
2023-02-25T17:45:58.782Z,22.05
2023-02-25T17:48:31.477Z,24.55
2023-02-25T17:51:10.723Z,10.68
2023-02-25T17:53:46.513Z,11.45
2023-02-25T17:56:26.123Z,9.85
2023-02-25T17:58:59.548Z,7.00
2023-02-25T18:01:31.596Z,8.95
2023-02-25T18:04:06.410Z,5.07
2023-02-25T18:06:40.397Z,4.00
2023-02-25T18:09:30.000Z,6.82
2023-02-25T18:12:00.267Z,10.88
2023-02-25T18:14:36.260Z,3.40
2023-02-25T18:17:14.725Z,4.85
2023-02-25T18:19:46.080Z,3.75
2023-02-25T18:22:48.119Z,3.30
2023-02-25T18:25:36.238Z,4.00
2023-02-25T18:28:04.747Z,5.15
2023-02-25T18:30:32.831Z,5.75
2023-02-25T18:33:00.198Z,3.17
2023-02-25T18:35:28.855Z,2.67
2023-02-25T18:37:57.452Z,2.67
2023-02-25T18:40:31.707Z,4.13
2023-02-25T18:42:59.955Z,3.53
2023-02-25T18:45:28.304Z,4.88
2023-02-25T18:47:56.997Z,4.85
2023-02-25T18:50:24.722Z,5.85
2023-02-25T18:52:51.957Z,5.18
2023-02-25T18:55:25.570Z,7.03
2023-02-25T18:57:52.734Z,14.50
2023-02-25T19:00:21.813Z,8.27
2023-02-25T19:02:54.440Z,7.38
2023-02-25T19:05:23.078Z,7.55
2023-02-25T19:07:50.533Z,9.82
2023-02-25T19:10:20.568Z,8.45
2023-02-25T19:12:51.323Z,5.32
2023-02-25T19:15:21.032Z,5.03
2023-02-25T19:17:49.137Z,6.53
2023-02-25T19:20:17.898Z,5.32
2023-02-25T19:22:47.674Z,3.50
2023-02-25T19:25:29.852Z,5.65
2023-02-25T19:31:20.905Z,4.82
2023-02-25T19:33:48.244Z,5.18
2023-02-25T19:36:15.132Z,3.75
2023-02-25T19:38:42.592Z,5.18
2023-02-25T19:41:15.551Z,3.25
2023-02-25T19:43:42.412Z,4.25
2023-02-25T19:46:09.861Z,5.47
2023-02-25T19:48:36.812Z,3.92
2023-02-25T19:51:08.424Z,2.38
2023-02-25T19:53:36.038Z,3.08
2023-02-25T19:56:07.976Z,6.05
2023-02-25T19:58:35.084Z,2.97
2023-02-25T20:01:05.448Z,6.72
2023-02-25T20:03:32.610Z,4.45
2023-02-25T20:06:06.924Z,5.10
2023-02-25T20:08:35.780Z,6.50
2023-02-25T20:11:03.481Z,5.70
2023-02-25T20:13:30.447Z,4.38
2023-02-25T20:16:01.542Z,4.68
2023-02-25T20:18:28.545Z,7.07
2023-02-25T20:20:55.327Z,3.50
2023-02-25T20:23:22.184Z,6.18
2023-02-25T20:25:49.041Z,4.75
2023-02-25T20:28:15.830Z,5.00
2023-02-25T20:30:42.680Z,2.97
2023-02-25T20:33:09.741Z,3.92
2023-02-25T20:35:36.892Z,1.92
2023-02-25T20:38:22.064Z,3.70
2023-02-25T20:40:49.292Z,3.75
2023-02-25T20:43:17.231Z,2.40
2023-02-25T20:45:45.313Z,3.28
2023-02-25T20:48:29.838Z,2.70
2023-02-25T20:50:57.302Z,2.97
2023-02-25T20:53:24.989Z,3.58
2023-02-25T20:55:54.285Z,2.40
2023-02-25T20:58:21.676Z,4.85
2023-02-25T21:00:48.887Z,3.92
2023-02-25T21:03:15.852Z,6.78
2023-02-25T21:05:43.016Z,2.83
2023-02-25T21:08:09.995Z,3.45
2023-02-25T21:10:36.860Z,4.53
2023-02-25T21:13:03.806Z,3.13
2023-02-25T21:15:30.924Z,3.50
2023-02-25T21:17:57.843Z,3.85
2023-02-25T21:20:25.172Z,2.05
2023-02-25T21:22:52.503Z,7.18
2023-02-25T21:25:19.455Z,3.45
2023-02-25T21:27:46.404Z,7.65
2023-02-25T21:30:13.428Z,5.50
2023-02-25T21:32:40.228Z,7.60
2023-02-25T21:35:07.433Z,2.85
2023-02-25T21:37:34.315Z,6.00
2023-02-25T21:40:01.207Z,3.15
2023-02-25T21:42:28.079Z,3.97
2023-02-25T21:44:55.045Z,4.05
2023-02-25T21:47:22.097Z,3.65
2023-02-25T21:49:50.340Z,83.78
2023-02-25T21:52:18.563Z,6.32
2023-02-25T21:54:45.457Z,8.55
2023-02-25T21:57:12.242Z,5.90
2023-02-25T21:59:39.285Z,3.15
2023-02-25T22:02:06.102Z,2.42
2023-02-25T22:04:32.968Z,3.53
2023-02-25T22:06:59.828Z,1.88
2023-02-25T22:09:26.776Z,1.50
2023-02-25T22:11:53.571Z,1.70
2023-02-25T22:14:20.638Z,2.90
2023-02-25T22:16:47.508Z,3.10
2023-02-25T22:19:14.369Z,3.65
2023-02-25T22:21:41.269Z,1.48
2023-02-25T22:24:08.061Z,3.28
2023-02-25T22:26:36.361Z,3.60
2023-02-25T22:29:06.519Z,6.40
2023-02-25T22:31:35.136Z,5.43
2023-02-25T22:34:02.672Z,6.13
2023-02-25T22:36:29.723Z,4.07
2023-02-25T22:38:56.678Z,2.97
2023-02-25T22:41:28.794Z,3.10
2023-02-25T22:43:57.285Z,2.53
2023-02-25T22:46:27.247Z,4.57
2023-02-25T22:48:54.786Z,2.92
2023-02-25T22:51:32.266Z,3.38
2023-02-25T22:53:59.899Z,2.45
2023-02-25T22:56:27.392Z,2.95
2023-02-25T22:58:54.818Z,2.63
2023-02-25T23:01:24.247Z,3.65
2023-02-25T23:03:52.250Z,2.25
2023-02-25T23:06:22.090Z,3.38
2023-02-25T23:08:49.781Z,3.22
2023-02-25T23:11:27.023Z,2.97
2023-02-25T23:13:58.359Z,2.70
2023-02-25T23:16:31.510Z,3.30
2023-02-25T23:18:59.821Z,3.80
2023-02-25T23:21:27.996Z,1.95
2023-02-25T23:23:57.158Z,2.63
2023-02-25T23:26:26.680Z,1.98
2023-02-25T23:28:58.696Z,2.67
2023-02-25T23:34:00.116Z,1.38
2023-02-25T23:36:28.159Z,1.40
2023-02-25T23:38:57.957Z,2.03
2023-02-25T23:41:26.088Z,2.38
2023-02-25T23:43:54.401Z,7.78
2023-02-25T23:46:22.001Z,3.70
2023-02-25T23:48:49.245Z,2.38
2023-02-25T23:51:16.915Z,4.22
2023-02-25T23:53:43.998Z,4.80
2023-02-25T23:56:12.834Z,5.18
2023-02-25T23:58:40.121Z,4.03
